Time;durP1;ratioP1;P1;durP2;ratioP2;P2;SDS_P1;SDS_P2;PMS_P1;PMS_P2;Temp;Humidity;BMP_temperature;BMP_pressure;BME280_temperature;BME280_humidity;BME280_pressure;Samples;Min_cycle;Max_cycle;Signal;HPM_P1;HPM_P2
2021/09/07 00:01:24;;;;;;;3.08;2.00;;;;;;;;;;5023232;28;20053;-82
2021/09/07 00:03:51;;;;;;;3.05;2.13;;;;;;;;;;5028893;28;20427;-83
2021/09/07 00:06:17;;;;;;;4.45;2.20;;;;;;;;;;5026027;28;20053;-82
2021/09/07 00:08:44;;;;;;;3.30;2.13;;;;;;;;;;5023031;28;20707;-82
2021/09/07 00:11:11;;;;;;;3.22;2.15;;;;;;;;;;5014840;28;20062;-82
2021/09/07 00:13:37;;;;;;;4.28;2.30;;;;;;;;;;5024104;28;20114;-83
2021/09/07 00:16:04;;;;;;;3.60;2.17;;;;;;;;;;5026906;28;20558;-81
2021/09/07 00:18:30;;;;;;;3.20;1.90;;;;;;;;;;5020002;28;20077;-82
2021/09/07 00:20:57;;;;;;;3.42;1.95;;;;;;;;;;5032758;28;20057;-81
2021/09/07 00:23:23;;;;;;;4.28;2.20;;;;;;;;;;5021054;28;20555;-81
2021/09/07 00:25:49;;;;;;;2.83;2.00;;;;;;;;;;5034535;28;20068;-81
2021/09/07 00:28:16;;;;;;;3.30;2.22;;;;;;;;;;5021985;28;20057;-82
2021/09/07 00:30:42;;;;;;;3.20;2.30;;;;;;;;;;5025070;28;20053;-83
2021/09/07 00:33:09;;;;;;;2.90;1.98;;;;;;;;;;5025413;28;20060;-81
2021/09/07 00:35:35;;;;;;;3.25;2.17;;;;;;;;;;5019191;28;20147;-82
2021/09/07 00:38:02;;;;;;;2.65;1.83;;;;;;;;;;5026442;28;20062;-82
2021/09/07 00:40:28;;;;;;;4.15;2.28;;;;;;;;;;5013833;28;20328;-82
2021/09/07 00:42:55;;;;;;;3.40;2.17;;;;;;;;;;5018064;28;20450;-83
2021/09/07 00:45:21;;;;;;;3.50;1.90;;;;;;;;;;5017403;28;20044;-83
2021/09/07 00:47:48;;;;;;;2.70;1.70;;;;;;;;;;5022005;28;20053;-83
2021/09/07 00:50:14;;;;;;;3.05;1.80;;;;;;;;;;5020927;28;20064;-82
2021/09/07 00:52:41;;;;;;;3.42;2.08;;;;;;;;;;5027131;28;20076;-83
2021/09/07 00:55:08;;;;;;;3.10;1.90;;;;;;;;;;5028312;28;20061;-83
2021/09/07 00:57:35;;;;;;;3.60;2.10;;;;;;;;;;5020719;28;20072;-81
2021/09/07 01:00:04;;;;;;;3.38;2.28;;;;;;;;;;5022645;28;20060;-83
2021/09/07 01:02:30;;;;;;;3.38;2.00;;;;;;;;;;5031498;28;20499;-82
2021/09/07 01:04:56;;;;;;;4.43;2.38;;;;;;;;;;5025236;28;20061;-84
2021/09/07 01:07:23;;;;;;;3.75;2.10;;;;;;;;;;5012218;28;20124;-82
2021/09/07 01:09:50;;;;;;;3.15;1.80;;;;;;;;;;5025526;28;20065;-84
2021/09/07 01:12:17;;;;;;;3.00;2.10;;;;;;;;;;5014786;28;20058;-82
2021/09/07 01:14:43;;;;;;;2.92;1.85;;;;;;;;;;5019322;28;20033;-83
2021/09/07 01:17:14;;;;;;;4.35;2.00;;;;;;;;;;5021410;28;20061;-84
2021/09/07 01:19:42;;;;;;;4.18;2.20;;;;;;;;;;5016954;28;20081;-83
2021/09/07 01:22:09;;;;;;;2.45;1.77;;;;;;;;;;5020112;28;20061;-83
2021/09/07 01:24:36;;;;;;;3.20;2.13;;;;;;;;;;5026224;28;20102;-83
2021/09/07 01:27:05;;;;;;;3.05;2.20;;;;;;;;;;5028753;28;20098;-82
2021/09/07 01:29:35;;;;;;;3.30;1.90;;;;;;;;;;5020907;28;20053;-82
2021/09/07 01:32:02;;;;;;;3.53;1.95;;;;;;;;;;5019591;28;20057;-83
2021/09/07 01:34:29;;;;;;;3.05;2.08;;;;;;;;;;5031402;28;22440;-83
2021/09/07 01:36:56;;;;;;;2.88;1.95;;;;;;;;;;5026038;28;20562;-83
2021/09/07 01:39:24;;;;;;;3.70;2.00;;;;;;;;;;4988398;28;1111649;-82
2021/09/07 01:41:50;;;;;;;4.18;2.15;;;;;;;;;;5024115;28;20075;-83
2021/09/07 01:44:18;;;;;;;6.07;2.22;;;;;;;;;;5019528;28;20486;-84
2021/09/07 01:46:44;;;;;;;3.90;2.33;;;;;;;;;;5016566;28;20037;-85
2021/09/07 01:49:11;;;;;;;3.13;2.10;;;;;;;;;;5023325;28;20089;-86
2021/09/07 01:51:38;;;;;;;2.95;1.85;;;;;;;;;;5032634;28;20042;-84
2021/09/07 01:54:05;;;;;;;3.17;1.77;;;;;;;;;;5016530;28;20054;-83
2021/09/07 01:56:32;;;;;;;3.17;1.92;;;;;;;;;;5022713;28;20062;-85
2021/09/07 01:58:59;;;;;;;2.83;2.00;;;;;;;;;;5026101;28;20072;-82
2021/09/07 02:01:25;;;;;;;3.25;1.90;;;;;;;;;;5009581;28;20065;-84
2021/09/07 02:03:52;;;;;;;3.85;1.98;;;;;;;;;;5015482;28;20056;-84
2021/09/07 02:06:18;;;;;;;4.07;1.95;;;;;;;;;;5026255;28;20060;-84
2021/09/07 02:08:48;;;;;;;3.13;1.70;;;;;;;;;;5014817;28;20062;-84
2021/09/07 02:11:14;;;;;;;2.90;1.85;;;;;;;;;;5018644;28;20041;-84
2021/09/07 02:13:40;;;;;;;2.72;1.70;;;;;;;;;;5018797;28;20062;-85
2021/09/07 02:16:07;;;;;;;3.13;2.20;;;;;;;;;;5018216;28;20434;-82
2021/09/07 02:18:33;;;;;;;2.83;1.70;;;;;;;;;;5017427;28;20104;-83
2021/09/07 02:21:00;;;;;;;2.47;1.77;;;;;;;;;;5013957;28;20037;-85
2021/09/07 02:23:26;;;;;;;3.08;2.00;;;;;;;;;;5023256;28;20061;-85
2021/09/07 02:25:52;;;;;;;3.85;2.00;;;;;;;;;;5022506;28;20050;-84
2021/09/07 02:28:19;;;;;;;4.45;2.08;;;;;;;;;;5021351;28;20088;-83
2021/09/07 02:30:45;;;;;;;2.92;1.80;;;;;;;;;;5011865;28;20041;-85
2021/09/07 02:33:12;;;;;;;3.30;2.03;;;;;;;;;;5017400;28;20064;-83
2021/09/07 02:35:38;;;;;;;3.22;2.10;;;;;;;;;;5015843;28;20056;-84
2021/09/07 02:38:05;;;;;;;3.40;2.10;;;;;;;;;;5019417;28;20057;-83
2021/09/07 02:40:31;;;;;;;3.08;1.90;;;;;;;;;;5017723;28;20057;-84
2021/09/07 02:42:58;;;;;;;2.80;1.90;;;;;;;;;;5012710;28;20069;-84
2021/09/07 02:45:25;;;;;;;2.85;1.90;;;;;;;;;;5020794;28;20511;-84
2021/09/07 02:47:52;;;;;;;3.10;1.70;;;;;;;;;;5017424;28;20029;-84
2021/09/07 02:50:19;;;;;;;3.42;1.95;;;;;;;;;;5021581;28;20073;-84
2021/09/07 02:52:45;;;;;;;3.55;1.83;;;;;;;;;;5018047;28;20567;-84
2021/09/07 02:55:12;;;;;;;3.33;2.00;;;;;;;;;;5014625;28;20072;-84
2021/09/07 02:57:38;;;;;;;3.33;2.15;;;;;;;;;;5020885;28;20053;-83
2021/09/07 03:00:06;;;;;;;2.60;1.60;;;;;;;;;;5013231;28;20053;-83
2021/09/07 03:02:32;;;;;;;2.70;1.90;;;;;;;;;;5021286;28;20135;-84
2021/09/07 03:04:58;;;;;;;4.32;1.95;;;;;;;;;;5021119;28;20054;-84
2021/09/07 03:07:25;;;;;;;3.08;2.00;;;;;;;;;;5024346;28;20076;-84
2021/09/07 03:09:51;;;;;;;3.40;1.95;;;;;;;;;;5019717;28;20061;-85
2021/09/07 03:12:18;;;;;;;2.88;1.80;;;;;;;;;;5016337;28;20034;-85
2021/09/07 03:14:44;;;;;;;4.82;2.10;;;;;;;;;;5023172;28;20517;-85
2021/09/07 03:17:10;;;;;;;2.78;1.73;;;;;;;;;;5019289;28;20088;-78
2021/09/07 03:19:37;;;;;;;2.47;1.77;;;;;;;;;;5015402;28;20060;-81
2021/09/07 03:22:03;;;;;;;3.00;1.95;;;;;;;;;;5018477;28;20255;-83
2021/09/07 03:24:30;;;;;;;3.47;1.90;;;;;;;;;;5026836;28;21864;-80
2021/09/07 03:26:56;;;;;;;4.57;1.80;;;;;;;;;;5026421;28;20053;-79
2021/09/07 03:29:22;;;;;;;3.70;1.83;;;;;;;;;;5021542;28;20137;-79
2021/09/07 03:31:49;;;;;;;3.22;2.10;;;;;;;;;;5014285;28;20406;-78
2021/09/07 03:34:15;;;;;;;2.80;1.67;;;;;;;;;;5010761;28;20053;-80
2021/09/07 03:36:42;;;;;;;2.70;1.85;;;;;;;;;;5014950;28;20054;-80
2021/09/07 03:39:08;;;;;;;3.50;2.00;;;;;;;;;;5012547;28;20469;-78
2021/09/07 03:41:34;;;;;;;3.05;1.70;;;;;;;;;;5017820;28;20050;-79
2021/09/07 03:44:01;;;;;;;2.40;1.70;;;;;;;;;;5016054;28;20053;-79
2021/09/07 03:46:27;;;;;;;2.90;2.00;;;;;;;;;;5013473;28;20123;-79
2021/09/07 03:48:54;;;;;;;2.55;1.52;;;;;;;;;;5014727;28;20146;-79
2021/09/07 03:51:20;;;;;;;2.75;1.90;;;;;;;;;;5020113;28;20061;-80
2021/09/07 03:53:47;;;;;;;2.55;1.80;;;;;;;;;;5005590;28;20480;-79
2021/09/07 03:56:14;;;;;;;2.88;1.80;;;;;;;;;;5016041;28;20061;-79
2021/09/07 03:58:40;;;;;;;2.72;1.77;;;;;;;;;;5001938;28;20053;-77
2021/09/07 04:01:07;;;;;;;2.63;1.80;;;;;;;;;;5010634;28;20061;-79
2021/09/07 04:03:33;;;;;;;3.10;1.92;;;;;;;;;;4997499;28;20057;-80
2021/09/07 04:06:00;;;;;;;2.78;1.85;;;;;;;;;;4996122;28;20467;-80
2021/09/07 04:08:26;;;;;;;4.20;1.80;;;;;;;;;;4999712;28;20053;-80
2021/09/07 04:10:52;;;;;;;2.80;1.80;;;;;;;;;;5030149;28;20054;-79
2021/09/07 04:13:19;;;;;;;2.63;1.67;;;;;;;;;;4993638;28;20092;-80
2021/09/07 04:15:45;;;;;;;2.60;1.70;;;;;;;;;;5003553;28;20062;-79
2021/09/07 04:18:13;;;;;;;2.28;1.55;;;;;;;;;;4995404;28;20042;-78
2021/09/07 04:20:40;;;;;;;2.55;1.63;;;;;;;;;;5016292;28;20648;-78
2021/09/07 04:23:06;;;;;;;2.60;1.80;;;;;;;;;;5018359;28;20053;-79
2021/09/07 04:25:32;;;;;;;2.60;1.80;;;;;;;;;;5020900;28;20057;-78
2021/09/07 04:27:59;;;;;;;2.63;1.75;;;;;;;;;;5015575;28;20591;-80
2021/09/07 04:30:25;;;;;;;2.60;1.80;;;;;;;;;;5017758;28;20072;-80
2021/09/07 04:32:52;;;;;;;2.70;1.98;;;;;;;;;;5012655;28;20038;-79
2021/09/07 04:35:18;;;;;;;4.68;2.50;;;;;;;;;;5022360;28;20057;-78
2021/09/07 04:37:45;;;;;;;5.63;2.38;;;;;;;;;;5015713;28;20068;-78
2021/09/07 04:40:11;;;;;;;3.83;2.13;;;;;;;;;;5016687;28;20084;-84
2021/09/07 04:42:38;;;;;;;3.95;2.22;;;;;;;;;;5017122;28;20738;-85
2021/09/07 04:45:05;;;;;;;3.63;2.10;;;;;;;;;;5017206;28;20496;-83
2021/09/07 04:47:32;;;;;;;4.82;2.10;;;;;;;;;;5016283;28;20069;-81
2021/09/07 04:49:58;;;;;;;3.80;2.20;;;;;;;;;;5016588;28;20061;-85
2021/09/07 04:52:24;;;;;;;3.60;2.00;;;;;;;;;;5023948;28;20072;-84
2021/09/07 04:54:51;;;;;;;4.40;2.47;;;;;;;;;;5017748;28;20069;-85
2021/09/07 04:57:17;;;;;;;4.25;2.03;;;;;;;;;;5025352;28;20111;-85
2021/09/07 04:59:44;;;;;;;3.75;1.90;;;;;;;;;;5024227;28;20077;-87
2021/09/07 05:02:10;;;;;;;3.30;1.95;;;;;;;;;;5028882;28;20466;-85
2021/09/07 05:04:36;;;;;;;5.28;1.98;;;;;;;;;;5018725;28;20042;-84
2021/09/07 05:07:03;;;;;;;4.13;2.00;;;;;;;;;;5016523;28;20127;-86
2021/09/07 05:09:29;;;;;;;4.35;2.30;;;;;;;;;;5014149;28;20037;-85
2021/09/07 05:11:55;;;;;;;3.78;2.17;;;;;;;;;;5007968;28;20062;-85
2021/09/07 05:14:22;;;;;;;5.00;2.25;;;;;;;;;;5006245;28;20042;-85
2021/09/07 05:16:48;;;;;;;4.07;2.08;;;;;;;;;;5019348;28;20065;-86
2021/09/07 05:19:16;;;;;;;3.00;1.95;;;;;;;;;;5023105;28;20073;-85
2021/09/07 05:21:42;;;;;;;4.00;2.28;;;;;;;;;;5031668;28;20049;-86
2021/09/07 05:24:09;;;;;;;4.15;2.17;;;;;;;;;;5017752;28;20064;-84
2021/09/07 05:26:36;;;;;;;4.88;2.45;;;;;;;;;;5024738;28;20054;-85
2021/09/07 05:29:02;;;;;;;4.93;2.05;;;;;;;;;;5015562;28;20061;-84
2021/09/07 05:31:29;;;;;;;4.43;2.22;;;;;;;;;;5022497;28;20061;-84
2021/09/07 05:33:55;;;;;;;3.67;1.73;;;;;;;;;;5014186;28;20060;-85
2021/09/07 05:36:22;;;;;;;3.72;2.00;;;;;;;;;;5017840;28;20567;-85
2021/09/07 05:38:48;;;;;;;4.75;2.60;;;;;;;;;;5015381;28;20073;-85
2021/09/07 05:41:14;;;;;;;4.93;1.85;;;;;;;;;;5014825;28;20084;-84
2021/09/07 05:43:41;;;;;;;5.38;2.60;;;;;;;;;;5031442;28;20066;-85
2021/09/07 05:46:07;;;;;;;3.33;2.10;;;;;;;;;;5018019;28;20453;-85
2021/09/07 05:48:34;;;;;;;2.80;2.03;;;;;;;;;;5023879;28;20065;-85
2021/09/07 05:51:00;;;;;;;3.28;2.20;;;;;;;;;;5017977;28;20619;-84
2021/09/07 05:53:26;;;;;;;4.22;2.50;;;;;;;;;;5016784;28;20067;-84
2021/09/07 05:55:53;;;;;;;3.13;2.35;;;;;;;;;;5027876;28;20446;-85
2021/09/07 05:58:19;;;;;;;3.28;1.90;;;;;;;;;;5010764;28;20053;-85
2021/09/07 06:00:45;;;;;;;3.78;2.20;;;;;;;;;;5012341;28;20065;-85
2021/09/07 06:03:12;;;;;;;4.43;1.92;;;;;;;;;;5012866;28;20589;-86
2021/09/07 06:05:38;;;;;;;4.43;2.35;;;;;;;;;;5023309;28;20064;-85
2021/09/07 06:08:05;;;;;;;3.75;2.20;;;;;;;;;;5017208;28;20061;-83
2021/09/07 06:10:31;;;;;;;4.95;2.50;;;;;;;;;;5018059;28;20054;-84
2021/09/07 06:12:57;;;;;;;3.45;2.25;;;;;;;;;;5019145;28;20430;-87
2021/09/07 06:15:27;;;;;;;3.33;2.22;;;;;;;;;;5027802;28;20068;-86
2021/09/07 06:17:53;;;;;;;5.32;2.25;;;;;;;;;;5025205;28;20053;-85
2021/09/07 06:20:19;;;;;;;4.95;2.10;;;;;;;;;;5022266;28;20057;-85
2021/09/07 06:22:46;;;;;;;3.70;2.47;;;;;;;;;;5015934;28;20061;-85
2021/09/07 06:25:12;;;;;;;5.07;2.33;;;;;;;;;;5027842;28;20106;-84
2021/09/07 06:27:39;;;;;;;3.55;2.15;;;;;;;;;;5022099;28;20061;-85
2021/09/07 06:30:06;;;;;;;5.05;2.30;;;;;;;;;;5029019;28;20061;-83
2021/09/07 06:32:32;;;;;;;4.18;2.20;;;;;;;;;;5021661;28;20053;-85
2021/09/07 06:34:59;;;;;;;6.28;2.20;;;;;;;;;;5022166;28;20610;-86
2021/09/07 06:37:26;;;;;;;4.50;2.38;;;;;;;;;;5027880;28;20072;-85
2021/09/07 06:39:52;;;;;;;4.63;2.30;;;;;;;;;;5029394;28;20529;-86
2021/09/07 06:42:19;;;;;;;5.95;2.55;;;;;;;;;;5019436;28;20038;-85
2021/09/07 06:44:45;;;;;;;3.63;2.47;;;;;;;;;;5026651;28;20049;-85
2021/09/07 06:47:12;;;;;;;3.58;2.17;;;;;;;;;;5033858;28;20131;-83
2021/09/07 06:49:38;;;;;;;3.65;2.42;;;;;;;;;;5024552;28;20060;-83
2021/09/07 06:52:05;;;;;;;3.97;2.20;;;;;;;;;;5023759;28;20058;-86
2021/09/07 06:54:31;;;;;;;3.28;2.13;;;;;;;;;;5019587;28;20445;-86
2021/09/07 06:56:57;;;;;;;4.60;2.28;;;;;;;;;;5024620;28;20065;-85
2021/09/07 06:59:24;;;;;;;4.00;2.22;;;;;;;;;;5019803;28;20072;-84
2021/09/07 07:01:50;;;;;;;3.47;2.05;;;;;;;;;;5022131;28;20469;-84
2021/09/07 07:04:17;;;;;;;3.75;2.47;;;;;;;;;;5023386;28;20490;-86
2021/09/07 07:06:43;;;;;;;3.13;2.20;;;;;;;;;;5024280;28;20064;-85
2021/09/07 07:09:10;;;;;;;3.42;2.33;;;;;;;;;;5019238;28;20058;-84
2021/09/07 07:11:36;;;;;;;4.25;2.22;;;;;;;;;;5020642;28;20065;-85
2021/09/07 07:14:02;;;;;;;2.95;2.30;;;;;;;;;;5024266;28;20053;-85
2021/09/07 07:16:29;;;;;;;4.10;2.45;;;;;;;;;;5028219;28;20061;-84
2021/09/07 07:18:55;;;;;;;3.58;1.85;;;;;;;;;;5022038;28;20061;-85
2021/09/07 07:21:22;;;;;;;5.20;2.00;;;;;;;;;;5028420;28;20066;-84
2021/09/07 07:23:48;;;;;;;3.05;2.15;;;;;;;;;;5020116;28;20615;-85
2021/09/07 07:26:15;;;;;;;3.60;2.25;;;;;;;;;;5028901;28;20034;-84
2021/09/07 07:28:41;;;;;;;5.13;2.65;;;;;;;;;;5024023;28;20061;-83
2021/09/07 07:31:07;;;;;;;2.85;2.00;;;;;;;;;;5025892;28;20053;-83
2021/09/07 07:33:34;;;;;;;3.53;2.17;;;;;;;;;;5023125;28;20534;-86
2021/09/07 07:36:00;;;;;;;3.33;2.05;;;;;;;;;;5027245;28;20076;-84
2021/09/07 07:38:27;;;;;;;4.55;2.38;;;;;;;;;;5024008;28;20069;-85
2021/09/07 07:40:53;;;;;;;3.38;1.88;;;;;;;;;;5025615;28;20065;-85
2021/09/07 07:43:24;;;;;;;4.47;2.17;;;;;;;;;;5034929;28;20057;-85
2021/09/07 07:45:51;;;;;;;3.65;2.03;;;;;;;;;;5026218;28;20505;-86
2021/09/07 07:48:18;;;;;;;3.35;2.47;;;;;;;;;;5020406;28;20064;-84
2021/09/07 07:50:44;;;;;;;2.70;2.10;;;;;;;;;;5024600;28;20073;-84
2021/09/07 07:53:10;;;;;;;2.55;1.85;;;;;;;;;;5019825;28;20060;-83
2021/09/07 07:55:37;;;;;;;4.00;2.30;;;;;;;;;;5029293;28;20053;-86
2021/09/07 07:58:03;;;;;;;4.93;2.10;;;;;;;;;;5035137;28;20053;-85
2021/09/07 08:00:29;;;;;;;3.70;2.33;;;;;;;;;;5036511;28;20064;-85
2021/09/07 08:02:56;;;;;;;3.30;2.17;;;;;;;;;;5026376;28;20029;-85
2021/09/07 08:05:23;;;;;;;3.42;2.20;;;;;;;;;;5026556;28;20115;-85
2021/09/07 08:07:49;;;;;;;4.22;2.13;;;;;;;;;;5021520;28;20513;-86
2021/09/07 08:10:15;;;;;;;3.53;2.15;;;;;;;;;;5019935;28;20065;-84
2021/09/07 08:12:42;;;;;;;4.68;2.45;;;;;;;;;;5022086;28;20078;-84
2021/09/07 08:15:09;;;;;;;3.20;2.20;;;;;;;;;;5020416;28;20057;-85
2021/09/07 08:17:35;;;;;;;3.30;2.00;;;;;;;;;;5015969;28;20070;-84
2021/09/07 08:20:02;;;;;;;3.35;2.05;;;;;;;;;;5021594;28;20069;-85
2021/09/07 08:22:28;;;;;;;4.55;2.33;;;;;;;;;;5023173;28;20214;-85
2021/09/07 08:24:54;;;;;;;3.60;1.80;;;;;;;;;;5027801;28;20659;-83
2021/09/07 08:27:21;;;;;;;3.35;2.20;;;;;;;;;;5025732;28;20084;-84
2021/09/07 08:29:47;;;;;;;3.75;2.33;;;;;;;;;;5018523;28;20053;-85
2021/09/07 08:32:14;;;;;;;2.80;1.90;;;;;;;;;;5021588;28;20426;-85
2021/09/07 08:34:40;;;;;;;3.10;2.20;;;;;;;;;;5023626;28;20476;-85
2021/09/07 08:37:06;;;;;;;3.47;2.15;;;;;;;;;;5022374;28;20045;-84
2021/09/07 08:39:33;;;;;;;4.45;2.00;;;;;;;;;;5020634;28;20057;-85
2021/09/07 08:42:00;;;;;;;3.65;2.00;;;;;;;;;;5029319;28;20061;-85
2021/09/07 08:44:28;;;;;;;3.92;1.90;;;;;;;;;;5034033;28;20061;-85
2021/09/07 08:46:54;;;;;;;3.30;2.00;;;;;;;;;;5020842;28;20061;-85
2021/09/07 08:49:21;;;;;;;3.63;1.92;;;;;;;;;;4999142;28;20587;-85
2021/09/07 08:51:48;;;;;;;4.35;2.10;;;;;;;;;;5020660;28;20044;-86
2021/09/07 08:54:14;;;;;;;2.83;1.88;;;;;;;;;;5008326;28;20657;-84
2021/09/07 08:56:41;;;;;;;2.60;1.88;;;;;;;;;;5012474;28;20445;-85
2021/09/07 08:59:11;;;;;;;3.50;1.90;;;;;;;;;;5015936;28;20588;-84
2021/09/07 09:01:38;;;;;;;4.82;2.05;;;;;;;;;;5011916;28;20048;-85
2021/09/07 09:04:05;;;;;;;4.10;1.95;;;;;;;;;;5027700;28;20053;-86
2021/09/07 09:06:31;;;;;;;3.45;1.67;;;;;;;;;;5010926;28;22463;-85
2021/09/07 09:09:08;;;;;;;3.42;1.75;;;;;;;;;;5019399;28;20115;-85
2021/09/07 09:11:50;;;;;;;3.38;2.00;;;;;;;;;;5022080;28;20260;-85
2021/09/07 09:14:49;;;;;;;3.58;2.00;;;;;;;;;;5014802;28;20076;-85
2021/09/07 09:17:29;;;;;;;2.80;2.00;;;;;;;;;;5011813;28;20061;-84
2021/09/07 09:20:02;;;;;;;2.92;2.00;;;;;;;;;;5013531;28;20066;-85
2021/09/07 09:22:50;;;;;;;3.38;1.77;;;;;;;;;;5021308;28;20057;-84
2021/09/07 09:25:20;;;;;;;2.78;1.80;;;;;;;;;;5014492;28;20088;-85
2021/09/07 09:27:49;;;;;;;4.28;2.17;;;;;;;;;;5017089;28;20162;-84
2021/09/07 09:30:16;;;;;;;2.83;1.90;;;;;;;;;;5011542;28;20068;-85
2021/09/07 09:32:47;;;;;;;3.63;1.88;;;;;;;;;;5013729;28;20107;-85
2021/09/07 09:35:14;;;;;;;4.78;1.92;;;;;;;;;;5019030;28;20068;-83
2021/09/07 09:37:53;;;;;;;3.40;2.08;;;;;;;;;;5022911;28;20501;-85
2021/09/07 09:40:19;;;;;;;3.50;1.70;;;;;;;;;;5012282;28;20455;-85
2021/09/07 09:42:48;;;;;;;3.15;1.90;;;;;;;;;;5019701;28;20126;-84
2021/09/07 09:45:15;;;;;;;3.03;2.00;;;;;;;;;;5023539;28;20057;-85
2021/09/07 09:47:45;;;;;;;3.92;1.85;;;;;;;;;;5020359;28;20037;-85
2021/09/07 09:50:13;;;;;;;2.40;1.73;;;;;;;;;;5019833;28;20597;-84
2021/09/07 09:52:43;;;;;;;3.50;1.85;;;;;;;;;;5018551;28;20057;-85
2021/09/07 09:55:11;;;;;;;3.20;1.83;;;;;;;;;;5025014;28;20948;-85
2021/09/07 09:57:38;;;;;;;3.10;1.85;;;;;;;;;;5027063;28;20030;-84
2021/09/07 10:00:05;;;;;;;3.42;1.85;;;;;;;;;;5019713;28;20056;-85
2021/09/07 10:02:33;;;;;;;4.28;2.00;;;;;;;;;;5021963;28;20072;-85
2021/09/07 10:05:00;;;;;;;3.00;1.77;;;;;;;;;;5013623;28;20033;-85
2021/09/07 10:07:27;;;;;;;2.90;1.88;;;;;;;;;;5014476;28;20540;-84
2021/09/07 10:09:58;;;;;;;2.38;1.73;;;;;;;;;;5016620;28;20577;-85
2021/09/07 10:12:25;;;;;;;;;;;;;;;;;;5024507;28;20069;-85
2021/09/07 10:15:22;;;;;;;2.40;1.83;;;;;;;;;;5021016;28;19992;-85
2021/09/07 10:20:23;;;;;;;3.13;1.70;;;;;;;;;;5015792;28;19922;-85
2021/09/07 10:25:47;;;;;;;3.33;1.73;;;;;;;;;;5016646;28;21501;-85
2021/09/07 10:28:28;;;;;;;2.60;1.58;;;;;;;;;;5023660;28;20053;-83
2021/09/07 10:30:59;;;;;;;3.70;1.80;;;;;;;;;;5027191;28;20128;-84
2021/09/07 10:33:36;;;;;;;3.15;1.80;;;;;;;;;;5030713;28;20147;-85
2021/09/07 10:36:06;;;;;;;3.33;1.92;;;;;;;;;;5026130;28;20057;-85
2021/09/07 10:38:40;;;;;;;2.90;2.00;;;;;;;;;;5021707;28;20061;-85
2021/09/07 10:41:07;;;;;;;3.00;1.80;;;;;;;;;;5022062;28;20069;-83
2021/09/07 10:43:49;;;;;;;3.00;1.80;;;;;;;;;;5019742;28;20502;-85
2021/09/07 10:46:18;;;;;;;3.05;1.83;;;;;;;;;;5024350;28;20449;-85
2021/09/07 10:48:45;;;;;;;3.45;1.83;;;;;;;;;;5027538;28;20057;-85
2021/09/07 10:51:11;;;;;;;2.92;1.80;;;;;;;;;;5026175;28;20053;-85
2021/09/07 10:53:37;;;;;;;3.15;2.13;;;;;;;;;;5015899;28;20030;-85
2021/09/07 10:56:23;;;;;;;2.60;1.70;;;;;;;;;;5027499;28;20065;-85
2021/09/07 10:58:49;;;;;;;3.17;1.67;;;;;;;;;;5026370;28;22179;-85
2021/09/07 11:01:29;;;;;;;2.92;1.83;;;;;;;;;;5022680;28;20089;-85
2021/09/07 11:04:13;;;;;;;3.00;1.88;;;;;;;;;;5012347;28;20057;-85
2021/09/07 11:06:41;;;;;;;6.55;2.47;;;;;;;;;;5026197;28;21205;-87
2021/09/07 11:09:26;;;;;;;6.78;2.67;;;;;;;;;;5020435;28;20049;-86
2021/09/07 11:11:52;;;;;;;4.00;2.55;;;;;;;;;;5025148;28;20029;-86
2021/09/07 11:14:19;;;;;;;6.57;2.95;;;;;;;;;;5023378;28;20070;-86
2021/09/07 11:16:52;;;;;;;5.88;2.25;;;;;;;;;;5029178;28;20057;-86
2021/09/07 11:19:18;;;;;;;6.18;2.53;;;;;;;;;;5028883;28;20058;-85
2021/09/07 11:21:46;;;;;;;7.10;2.95;;;;;;;;;;5027243;28;20033;-86
2021/09/07 11:24:19;;;;;;;6.93;2.47;;;;;;;;;;5023034;28;20060;-86
2021/09/07 11:26:46;;;;;;;4.53;2.60;;;;;;;;;;5030177;28;20049;-87
2021/09/07 11:29:12;;;;;;;6.28;2.80;;;;;;;;;;5031017;28;20053;-87
2021/09/07 11:31:39;;;;;;;5.10;2.88;;;;;;;;;;5036870;28;20069;-85
2021/09/07 11:34:16;;;;;;;9.82;3.15;;;;;;;;;;5032661;28;20029;-86
2021/09/07 11:36:42;;;;;;;7.28;3.60;;;;;;;;;;5020531;28;21543;-86
2021/09/07 11:39:19;;;;;;;5.28;3.38;;;;;;;;;;5035759;28;20096;-86
2021/09/07 11:41:45;;;;;;;8.70;4.32;;;;;;;;;;5034678;28;20502;-86
2021/09/07 11:44:12;;;;;;;8.13;4.20;;;;;;;;;;5026384;28;20119;-85
2021/09/07 11:46:41;;;;;;;6.53;3.72;;;;;;;;;;5025981;28;20053;-85
2021/09/07 11:49:07;;;;;;;6.28;3.50;;;;;;;;;;5022636;28;20102;-85
2021/09/07 11:51:35;;;;;;;5.82;3.28;;;;;;;;;;5020030;28;20496;-87
2021/09/07 11:54:04;;;;;;;6.68;3.40;;;;;;;;;;5020141;28;20064;-86
2021/09/07 11:56:31;;;;;;;5.68;3.35;;;;;;;;;;5022282;28;20057;-86
2021/09/07 11:59:10;;;;;;;6.22;3.40;;;;;;;;;;5019732;28;20060;-87
2021/09/07 12:01:46;;;;;;;6.18;3.20;;;;;;;;;;5029049;28;20053;-85
2021/09/07 12:04:14;;;;;;;6.70;4.07;;;;;;;;;;5021961;28;20049;-86
2021/09/07 12:06:51;;;;;;;7.88;4.40;;;;;;;;;;5022366;28;20049;-86
2021/09/07 12:09:22;;;;;;;10.55;4.40;;;;;;;;;;5022389;28;20071;-85
2021/09/07 12:11:53;;;;;;;7.93;3.97;;;;;;;;;;5018079;28;20123;-87
2021/09/07 12:14:22;;;;;;;7.00;3.92;;;;;;;;;;5023798;28;20050;-85
2021/09/07 12:17:04;;;;;;;7.15;4.22;;;;;;;;;;5014214;28;20537;-86
2021/09/07 12:19:35;;;;;;;9.73;3.63;;;;;;;;;;5032158;28;20124;-87
2021/09/07 12:22:08;;;;;;;8.33;4.37;;;;;;;;;;5016887;28;20061;-86
2021/09/07 12:24:35;;;;;;;7.45;3.83;;;;;;;;;;5027409;28;20053;-87
2021/09/07 12:27:19;;;;;;;8.35;4.03;;;;;;;;;;5023003;28;20439;-86
2021/09/07 12:30:04;;;;;;;6.82;4.22;;;;;;;;;;5000622;28;22163;-87
2021/09/07 12:32:31;;;;;;;6.70;3.80;;;;;;;;;;5002000;28;20057;-86
2021/09/07 12:34:57;;;;;;;7.78;4.03;;;;;;;;;;4997399;28;20100;-88
2021/09/07 12:37:24;;;;;;;6.32;3.70;;;;;;;;;;5004666;28;20119;-85
2021/09/07 12:39:50;;;;;;;6.97;3.80;;;;;;;;;;4996013;28;20121;-82
2021/09/07 12:42:16;;;;;;;7.07;3.45;;;;;;;;;;5005477;28;20125;-82
2021/09/07 12:44:43;;;;;;;8.98;3.67;;;;;;;;;;5002855;28;20454;-81
2021/09/07 12:47:09;;;;;;;8.70;3.80;;;;;;;;;;4994493;28;20120;-82
2021/09/07 12:49:35;;;;;;;7.60;3.90;;;;;;;;;;5002750;28;20062;-83
2021/09/07 12:52:02;;;;;;;4.80;3.58;;;;;;;;;;4998010;28;20050;-87
2021/09/07 12:54:28;;;;;;;5.28;3.35;;;;;;;;;;4996995;28;20124;-87
2021/09/07 12:56:54;;;;;;;8.25;4.00;;;;;;;;;;4994439;28;20128;-85
2021/09/07 12:59:21;;;;;;;8.20;4.30;;;;;;;;;;4994262;28;20419;-86
2021/09/07 13:01:47;;;;;;;6.45;3.42;;;;;;;;;;4992214;28;20065;-85
2021/09/07 13:04:14;;;;;;;6.20;3.88;;;;;;;;;;4994698;28;20066;-84
2021/09/07 13:06:40;;;;;;;6.18;3.63;;;;;;;;;;4997385;28;20583;-83
2021/09/07 13:09:07;;;;;;;7.38;3.92;;;;;;;;;;4992914;28;20069;-82
2021/09/07 13:11:33;;;;;;;6.22;3.50;;;;;;;;;;4994196;28;20085;-82
2021/09/07 13:13:59;;;;;;;5.85;3.53;;;;;;;;;;4995858;28;20062;-85
2021/09/07 13:16:26;;;;;;;6.22;3.75;;;;;;;;;;4995165;28;20061;-85
2021/09/07 13:18:52;;;;;;;6.90;3.90;;;;;;;;;;4994120;28;20057;-86
2021/09/07 13:21:20;;;;;;;5.28;3.40;;;;;;;;;;4987840;28;20066;-84
2021/09/07 13:23:46;;;;;;;5.78;3.53;;;;;;;;;;4995942;28;20100;-85
2021/09/07 13:26:13;;;;;;;6.70;3.80;;;;;;;;;;4996680;28;20061;-85
2021/09/07 13:28:39;;;;;;;5.20;3.55;;;;;;;;;;4990792;28;20066;-84
2021/09/07 13:31:06;;;;;;;6.07;3.55;;;;;;;;;;4992804;28;20034;-84
2021/09/07 13:33:32;;;;;;;5.15;3.20;;;;;;;;;;4997062;28;20120;-85
2021/09/07 13:35:59;;;;;;;4.97;3.50;;;;;;;;;;4992853;28;20064;-84
2021/09/07 13:38:25;;;;;;;5.75;4.13;;;;;;;;;;4996903;28;20084;-86
2021/09/07 13:40:51;;;;;;;5.10;3.70;;;;;;;;;;4993192;28;20057;-85
2021/09/07 13:43:18;;;;;;;5.75;3.60;;;;;;;;;;4996517;28;20054;-85
2021/09/07 13:45:44;;;;;;;5.32;3.50;;;;;;;;;;4996678;28;20123;-87
2021/09/07 13:48:11;;;;;;;4.82;3.60;;;;;;;;;;4991474;28;20065;-84
2021/09/07 13:50:38;;;;;;;5.45;3.80;;;;;;;;;;4992053;28;20058;-83
2021/09/07 13:53:04;;;;;;;6.15;3.45;;;;;;;;;;4994977;28;20058;-84
2021/09/07 13:55:31;;;;;;;6.60;3.58;;;;;;;;;;5016317;28;20061;-83
2021/09/07 13:57:57;;;;;;;5.47;3.53;;;;;;;;;;5015764;28;20061;-84
2021/09/07 14:00:24;;;;;;;7.25;3.60;;;;;;;;;;5010786;28;20076;-84
2021/09/07 14:02:50;;;;;;;6.68;3.78;;;;;;;;;;5010451;28;20061;-86
2021/09/07 14:05:16;;;;;;;5.18;3.67;;;;;;;;;;5017011;28;20645;-85
2021/09/07 14:07:43;;;;;;;7.35;3.60;;;;;;;;;;5019064;28;20116;-84
2021/09/07 14:10:12;;;;;;;6.60;3.22;;;;;;;;;;5011815;28;20046;-85
2021/09/07 14:12:39;;;;;;;7.05;3.78;;;;;;;;;;5012939;28;20688;-84
2021/09/07 14:15:06;;;;;;;5.72;3.55;;;;;;;;;;5014333;28;20041;-84
2021/09/07 14:17:32;;;;;;;6.43;3.58;;;;;;;;;;5016742;28;21211;-83
2021/09/07 14:19:59;;;;;;;5.82;3.33;;;;;;;;;;5017118;28;20111;-83
2021/09/07 14:22:26;;;;;;;6.47;4.00;;;;;;;;;;5011794;28;20077;-83
2021/09/07 14:24:52;;;;;;;5.38;3.58;;;;;;;;;;5022002;28;20089;-84
2021/09/07 14:27:19;;;;;;;5.97;3.55;;;;;;;;;;5021592;28;20088;-83
2021/09/07 14:29:45;;;;;;;4.90;3.22;;;;;;;;;;5011553;28;20068;-83
2021/09/07 14:32:12;;;;;;;6.03;3.80;;;;;;;;;;5017837;28;20046;-82
2021/09/07 14:34:39;;;;;;;6.05;3.50;;;;;;;;;;5010812;28;20061;-83
2021/09/07 14:37:06;;;;;;;7.00;3.40;;;;;;;;;;5012693;28;20081;-83
2021/09/07 14:39:32;;;;;;;5.90;3.80;;;;;;;;;;5017339;28;23346;-83
2021/09/07 14:41:58;;;;;;;8.15;4.45;;;;;;;;;;5019853;28;20072;-83
2021/09/07 14:44:25;;;;;;;6.60;3.58;;;;;;;;;;5026879;28;20061;-84
2021/09/07 14:46:51;;;;;;;7.47;3.72;;;;;;;;;;5024032;28;20053;-83
2021/09/07 14:49:17;;;;;;;5.95;3.75;;;;;;;;;;5020820;28;20439;-83
2021/09/07 14:51:44;;;;;;;6.10;3.50;;;;;;;;;;5012354;28;20049;-83